Atalissa, IA

4:11 AM CST on March 06, 2015 (GMT -0600)
Center of Cedar County | Change Station
CLOSE
Current Station
Personal Weather Station
Location: Tipton, IA
Elevation: 823 ft
Nearby Weather Stations

Elev 823 ft 41.77 °N, 91.13 °W | Updated 49 seconds ago

Partly Cloudy
Partly Cloudy
3.9 °F
Feels Like -8 °F
N
7.0
Wind Variable Wind from WSW
Gusts 7.0 mph

Today
High -- | Low -- °F
--% Chance of Precip.
Yesterday
High -- | Low -- °F
Precip. -- in
6:31 AM 6:00 PM
Full, 100% visible
Pressure 30.44 in
Visibility 10.0 miles
Clouds Scattered Clouds 11000 ft
Windchill -8 °F
Dew Point -0 °F
Humidity 83%
Rainfall in
Snow Depth Not available.
UV 0 out of 12
Pollen .50 out of 12
Air Quality Not available.
Flu Activity Not available.
METAR KMUT 060955Z AUTO 17004KT 10SM SCT110 M15/M18 A3044 RMK AO2

More Conditions Fewer Conditions

Pressure 30.44 in
Visibility 10.0 miles
Clouds Scattered Clouds 11000 ft
Windchill -8 °F
Dew Point -0 °F
Humidity 83%
Rainfall in
Snow Depth Not available.
UV 0 out of 12
Pollen .50 out of 12
Air Quality Not available.
Flu Activity Not available.
METAR KMUT 060955Z AUTO 17004KT 10SM SCT110 M15/M18 A3044 RMK AO2

More Conditions Fewer Conditions

10-Day Weather Forecast

Almanac

Astronomy

Mar. 06, 2015 Rise Set
Actual Time
Civil Twilight
Nautical Twilight
Astronomical Twilight
Moon
Length of Visible Light
Length of Day
Tomorrow will be .
, % of the Moon is Illuminated

Today's Extremes

State Highs State Lows

Community

WunderPhotos

Upload Photos

1,803,216 photos uploaded!

WunderBlogs® & News

Nearby

Air Quality

  Air Quality AQ Index Pollutant
Not available.

Snow Depth

Station Depth Elevation

Earthquake Activity

City Distance Mag. Time & Date
Minimum magnitude displayed is 2.5.

Coastal Water Temperatures

Place Temperature

Nearby Weather Stations